createdAt,value
2023-02-23T00:00:21.201Z,10.43
2023-02-23T00:02:36.317Z,10.73
2023-02-23T00:04:32.202Z,11.73
2023-02-23T00:06:28.543Z,10.73
2023-02-23T00:08:23.627Z,11.77
2023-02-23T00:10:19.679Z,11.33
2023-02-23T00:12:17.203Z,11.33
2023-02-23T00:14:15.484Z,10.77
2023-02-23T00:16:13.593Z,11.37
2023-02-23T00:18:09.447Z,12.23
2023-02-23T00:20:07.627Z,11.10
2023-02-23T00:22:02.557Z,11.23
2023-02-23T00:24:00.413Z,11.40
2023-02-23T00:25:55.380Z,10.77
2023-02-23T00:28:23.273Z,11.33
2023-02-23T00:30:22.314Z,10.83
2023-02-23T00:32:19.948Z,11.47
2023-02-23T00:34:16.998Z,11.20
2023-02-23T00:36:14.144Z,11.77
2023-02-23T00:38:09.468Z,10.77
2023-02-23T00:40:05.673Z,11.63
2023-02-23T00:42:03.763Z,11.77
2023-02-23T00:44:00.429Z,11.50
2023-02-23T00:46:00.334Z,11.73
2023-02-23T00:47:55.936Z,12.57
2023-02-23T00:49:53.974Z,11.87
2023-02-23T00:51:50.185Z,12.53
2023-02-23T00:53:45.839Z,11.87
2023-02-23T00:55:44.114Z,11.97
2023-02-23T00:57:39.816Z,12.83
2023-02-23T00:59:34.802Z,13.20
2023-02-23T01:01:32.955Z,11.53
2023-02-23T01:03:28.053Z,12.43
2023-02-23T01:05:23.143Z,11.87
2023-02-23T01:07:18.445Z,12.27
2023-02-23T01:09:21.901Z,13.17
2023-02-23T01:11:21.206Z,12.77
2023-02-23T01:13:18.108Z,12.17
2023-02-23T01:15:14.192Z,12.63
2023-02-23T01:17:11.753Z,13.03
2023-02-23T01:19:07.793Z,12.20
2023-02-23T01:21:02.799Z,13.23
2023-02-23T01:22:58.352Z,13.07
2023-02-23T01:24:53.747Z,12.03
2023-02-23T01:26:49.166Z,11.97
2023-02-23T01:28:44.442Z,12.83
2023-02-23T01:30:40.239Z,12.17
2023-02-23T01:32:39.138Z,13.43
2023-02-23T01:34:34.479Z,11.77
2023-02-23T01:36:30.856Z,12.40
2023-02-23T01:38:25.815Z,12.77
2023-02-23T01:40:28.906Z,12.60
2023-02-23T01:42:26.533Z,12.77
2023-02-23T01:44:51.845Z,13.00
2023-02-23T01:46:51.196Z,12.47
2023-02-23T01:48:49.503Z,12.60
2023-02-23T01:50:55.297Z,12.70
2023-02-23T01:52:53.229Z,13.40
2023-02-23T01:54:55.030Z,13.60
2023-02-23T01:56:58.245Z,13.53
2023-02-23T01:58:55.685Z,13.37
2023-02-23T02:00:54.702Z,14.03
2023-02-23T02:02:48.823Z,12.90
2023-02-23T02:04:48.775Z,14.30
2023-02-23T02:06:44.600Z,12.63
2023-02-23T02:08:45.325Z,13.70
2023-02-23T02:10:46.442Z,12.03
2023-02-23T02:12:41.754Z,13.53
2023-02-23T02:14:38.876Z,12.90
2023-02-23T02:16:50.962Z,14.03
2023-02-23T02:19:06.134Z,13.20
2023-02-23T02:21:44.936Z,12.47
2023-02-23T02:24:19.822Z,12.70
2023-02-23T02:26:24.508Z,13.77
2023-02-23T02:28:49.501Z,12.60
2023-02-23T02:30:58.476Z,14.57
2023-02-23T02:33:21.487Z,13.23
2023-02-23T02:35:38.100Z,13.43
2023-02-23T02:37:45.184Z,13.77
2023-02-23T02:39:47.065Z,13.67
2023-02-23T02:41:53.782Z,14.50
2023-02-23T02:43:54.776Z,12.83
2023-02-23T02:45:57.105Z,13.33
2023-02-23T02:48:01.144Z,14.30
2023-02-23T02:50:06.721Z,14.37
2023-02-23T02:52:06.798Z,13.90
2023-02-23T02:54:10.570Z,14.47
2023-02-23T02:56:13.771Z,14.37
2023-02-23T02:58:15.149Z,14.07
2023-02-23T03:00:50.282Z,14.53
2023-02-23T03:03:01.966Z,15.73
2023-02-23T03:05:09.813Z,14.87
2023-02-23T03:07:23.885Z,14.27
2023-02-23T03:09:49.251Z,14.37
2023-02-23T03:12:13.731Z,13.80
2023-02-23T03:14:35.432Z,15.40
2023-02-23T03:16:51.829Z,14.07
2023-02-23T03:19:15.281Z,14.37
2023-02-23T03:21:31.143Z,13.53
2023-02-23T03:23:44.044Z,13.83
2023-02-23T03:26:06.779Z,14.97
2023-02-23T03:28:24.663Z,14.63
2023-02-23T03:30:39.473Z,17.57
2023-02-23T03:32:52.308Z,15.07
2023-02-23T03:35:06.976Z,15.10
2023-02-23T03:37:19.719Z,14.87
2023-02-23T03:39:35.081Z,19.17
2023-02-23T03:41:49.072Z,16.27
2023-02-23T03:44:02.187Z,16.30
2023-02-23T03:46:12.765Z,15.53
2023-02-23T03:48:24.992Z,15.77
2023-02-23T03:50:40.076Z,14.83
2023-02-23T03:52:54.919Z,15.63
2023-02-23T03:55:08.777Z,14.87
2023-02-23T03:57:22.973Z,15.20
2023-02-23T03:59:34.594Z,16.53
2023-02-23T04:01:44.338Z,15.87
2023-02-23T04:03:55.293Z,15.43
2023-02-23T04:06:06.249Z,15.30
2023-02-23T04:08:17.105Z,15.83
2023-02-23T04:10:26.311Z,14.83
2023-02-23T04:12:42.850Z,15.47
2023-02-23T04:14:40.399Z,15.23
2023-02-23T04:16:33.567Z,16.13
2023-02-23T04:18:31.207Z,15.50
2023-02-23T04:20:27.614Z,14.83
2023-02-23T04:22:23.415Z,14.90
2023-02-23T04:24:18.687Z,15.83
2023-02-23T04:26:13.646Z,16.33
2023-02-23T04:28:11.611Z,15.63
2023-02-23T04:30:07.752Z,17.43
2023-02-23T04:32:02.883Z,17.20
2023-02-23T04:33:58.136Z,16.13
2023-02-23T04:35:55.140Z,15.50
2023-02-23T04:37:50.489Z,16.40
2023-02-23T04:39:49.663Z,16.17
2023-02-23T04:41:45.270Z,16.37
2023-02-23T04:43:42.912Z,15.57
2023-02-23T04:45:38.401Z,14.93
2023-02-23T04:47:33.426Z,15.67
2023-02-23T04:49:28.547Z,15.57
2023-02-23T04:51:24.137Z,15.90
2023-02-23T04:53:19.076Z,15.67
2023-02-23T04:55:21.505Z,16.70
2023-02-23T04:57:16.848Z,16.53
2023-02-23T04:59:14.792Z,16.67
2023-02-23T05:01:11.358Z,16.43
2023-02-23T05:03:06.860Z,15.13
2023-02-23T05:05:01.821Z,15.47
2023-02-23T05:06:57.201Z,17.17
2023-02-23T05:08:52.286Z,17.97
2023-02-23T05:10:49.130Z,17.07
2023-02-23T05:12:44.049Z,16.03
2023-02-23T05:14:42.197Z,15.73
2023-02-23T05:16:37.128Z,14.67
2023-02-23T05:18:32.748Z,15.23
2023-02-23T05:20:27.832Z,17.57
2023-02-23T05:22:23.342Z,16.30
2023-02-23T05:24:18.333Z,16.10
2023-02-23T05:26:15.623Z,16.00
2023-02-23T05:28:10.641Z,15.93
2023-02-23T05:30:10.498Z,16.17
2023-02-23T05:32:07.442Z,15.83
2023-02-23T05:34:02.748Z,15.33
2023-02-23T05:35:58.231Z,15.83
2023-02-23T05:37:53.505Z,15.87
2023-02-23T05:39:49.654Z,14.63
2023-02-23T05:41:44.993Z,16.27
2023-02-23T05:43:40.186Z,15.47
2023-02-23T05:45:42.250Z,15.70
2023-02-23T05:47:38.919Z,15.80
2023-02-23T05:49:34.498Z,14.87
2023-02-23T05:51:30.659Z,16.23
2023-02-23T05:53:25.933Z,16.60
2023-02-23T05:55:20.864Z,15.80
2023-02-23T05:57:16.114Z,15.57
2023-02-23T05:59:11.159Z,17.63
2023-02-23T06:01:09.044Z,14.87
2023-02-23T06:03:04.064Z,16.03
2023-02-23T06:04:59.518Z,15.17
2023-02-23T06:06:54.878Z,15.17
2023-02-23T06:08:52.790Z,16.50
2023-02-23T06:10:47.846Z,15.27
2023-02-23T06:12:43.116Z,15.47
2023-02-23T06:14:38.086Z,15.40
2023-02-23T06:16:36.054Z,15.83
2023-02-23T06:18:31.424Z,15.50
2023-02-23T06:20:26.775Z,15.30
2023-02-23T06:22:22.066Z,16.40
2023-02-23T06:24:17.829Z,15.83
2023-02-23T06:26:13.915Z,16.27
2023-02-23T06:28:10.661Z,15.73
2023-02-23T06:30:05.759Z,14.63
2023-02-23T06:32:03.712Z,15.63
2023-02-23T06:33:58.936Z,15.13
2023-02-23T06:35:54.789Z,15.70
2023-02-23T06:37:49.787Z,15.87
2023-02-23T06:39:45.053Z,15.70
2023-02-23T06:41:40.259Z,16.07
2023-02-23T06:43:35.542Z,15.37
2023-02-23T06:45:31.850Z,15.80
2023-02-23T06:47:29.719Z,15.37
2023-02-23T06:49:25.111Z,15.73
2023-02-23T06:51:20.647Z,15.37
2023-02-23T06:53:15.904Z,15.50
2023-02-23T06:55:13.207Z,16.70
2023-02-23T06:57:08.223Z,15.50
2023-02-23T06:59:03.573Z,15.97
2023-02-23T07:00:59.553Z,15.80
2023-02-23T07:02:57.855Z,15.53
2023-02-23T07:04:52.898Z,14.97
2023-02-23T07:06:48.415Z,14.57
2023-02-23T07:08:43.565Z,15.70
2023-02-23T07:10:39.009Z,16.30
2023-02-23T07:12:34.494Z,14.80
2023-02-23T07:14:30.084Z,15.27
2023-02-23T07:16:27.784Z,15.80
2023-02-23T07:18:33.693Z,15.27
2023-02-23T07:20:31.394Z,16.90
2023-02-23T07:22:30.310Z,15.47
2023-02-23T07:24:27.484Z,14.87
2023-02-23T07:26:23.105Z,15.57
2023-02-23T07:28:18.998Z,16.77
2023-02-23T07:30:19.469Z,14.97
2023-02-23T07:32:14.734Z,16.43
2023-02-23T07:34:13.329Z,15.80
2023-02-23T07:36:09.334Z,14.87
2023-02-23T07:38:05.635Z,15.10
2023-02-23T07:40:01.551Z,16.23
2023-02-23T07:41:57.139Z,15.87
2023-02-23T07:43:52.197Z,15.60
2023-02-23T07:45:47.461Z,15.07
2023-02-23T07:47:42.531Z,15.27
2023-02-23T07:49:40.447Z,15.47
2023-02-23T07:51:35.393Z,15.83
2023-02-23T07:53:31.796Z,15.13
2023-02-23T07:55:26.730Z,16.10
2023-02-23T07:57:23.976Z,15.70
2023-02-23T07:59:19.845Z,16.07
2023-02-23T08:01:16.060Z,14.80
2023-02-23T08:03:11.114Z,15.43
2023-02-23T08:05:09.622Z,15.70
2023-02-23T08:07:04.682Z,15.10
2023-02-23T08:09:01.695Z,15.40
2023-02-23T08:11:02.609Z,15.53
2023-02-23T08:12:57.922Z,15.33
2023-02-23T08:14:53.607Z,16.57
2023-02-23T08:16:51.460Z,15.07
2023-02-23T08:18:46.615Z,15.73
2023-02-23T08:20:44.478Z,16.17
2023-02-23T08:22:48.845Z,14.27
2023-02-23T08:24:44.984Z,15.63
2023-02-23T08:26:41.139Z,15.97
2023-02-23T08:28:36.620Z,15.57
2023-02-23T08:30:31.692Z,15.90
2023-02-23T08:32:27.436Z,15.10
2023-02-23T08:34:22.901Z,15.23
2023-02-23T08:36:21.126Z,15.03
2023-02-23T08:38:16.550Z,14.90
2023-02-23T08:40:15.584Z,15.50
2023-02-23T08:42:10.656Z,15.23
2023-02-23T08:44:07.629Z,15.53
2023-02-23T08:46:02.555Z,15.70
2023-02-23T08:48:01.463Z,15.33
2023-02-23T08:49:56.915Z,16.63
2023-02-23T08:51:54.797Z,16.30
2023-02-23T08:53:49.733Z,15.37
2023-02-23T08:55:45.499Z,15.60
2023-02-23T08:57:40.844Z,15.27
2023-02-23T08:59:36.985Z,14.87
2023-02-23T09:01:31.932Z,16.37
2023-02-23T09:03:28.664Z,15.37
2023-02-23T09:05:23.659Z,15.63
2023-02-23T09:07:23.222Z,17.90
2023-02-23T09:09:18.738Z,15.93
2023-02-23T09:11:14.077Z,15.03
2023-02-23T09:13:09.417Z,15.87
2023-02-23T09:15:05.079Z,16.23
2023-02-23T09:17:00.032Z,15.23
2023-02-23T09:18:55.964Z,15.60
2023-02-23T09:20:50.925Z,16.17
2023-02-23T09:22:50.558Z,15.67
2023-02-23T09:24:45.853Z,17.73
2023-02-23T09:26:43.543Z,16.50
2023-02-23T09:28:41.323Z,15.70
2023-02-23T09:30:36.710Z,15.63
2023-02-23T09:32:31.875Z,15.17
2023-02-23T09:34:30.766Z,15.23
2023-02-23T09:36:27.729Z,16.27
2023-02-23T09:38:26.033Z,16.27
2023-02-23T09:40:24.957Z,16.70
2023-02-23T09:42:33.964Z,16.53
2023-02-23T09:44:39.839Z,15.50
2023-02-23T09:46:44.304Z,16.00
2023-02-23T09:48:39.585Z,16.63
2023-02-23T09:50:38.132Z,16.13
2023-02-23T09:52:42.170Z,16.10
2023-02-23T09:54:40.373Z,16.53
2023-02-23T09:56:40.161Z,17.17
2023-02-23T09:58:37.821Z,15.70
2023-02-23T10:00:37.075Z,15.40
2023-02-23T10:02:40.476Z,15.80
2023-02-23T10:04:39.782Z,15.83
2023-02-23T10:06:35.267Z,15.77
2023-02-23T10:08:48.729Z,14.87
2023-02-23T10:10:50.842Z,17.63
2023-02-23T10:12:55.483Z,15.60
2023-02-23T10:15:04.066Z,14.60
2023-02-23T10:17:14.537Z,16.20
2023-02-23T10:19:20.380Z,16.77
2023-02-23T10:21:20.008Z,15.37
2023-02-23T10:23:20.032Z,15.60
2023-02-23T10:25:18.686Z,15.60
2023-02-23T10:27:19.569Z,16.17
2023-02-23T10:29:25.948Z,15.33
2023-02-23T10:31:31.515Z,15.60
2023-02-23T10:33:34.928Z,16.13
2023-02-23T10:35:32.217Z,15.43
2023-02-23T10:37:28.390Z,15.40
2023-02-23T10:39:24.344Z,15.63
2023-02-23T10:41:19.638Z,16.53
2023-02-23T10:43:18.217Z,16.20
2023-02-23T10:45:22.704Z,16.63
2023-02-23T10:47:20.771Z,16.83
2023-02-23T10:49:22.657Z,17.70
2023-02-23T10:51:24.016Z,16.67
2023-02-23T10:53:26.682Z,17.10
2023-02-23T10:55:30.295Z,16.07
2023-02-23T10:57:30.044Z,17.17
2023-02-23T10:59:28.754Z,16.77
2023-02-23T11:02:00.500Z,16.77
2023-02-23T11:04:05.725Z,17.70
2023-02-23T11:06:01.203Z,18.43
2023-02-23T11:08:12.981Z,18.60
2023-02-23T11:10:30.996Z,17.27
2023-02-23T11:12:29.694Z,17.27
2023-02-23T11:14:30.524Z,16.97
2023-02-23T11:16:27.859Z,17.60
2023-02-23T11:18:26.231Z,18.57
2023-02-23T11:20:28.508Z,16.07
2023-02-23T11:22:24.226Z,18.70
2023-02-23T11:24:24.037Z,17.53
2023-02-23T11:26:33.360Z,18.20
2023-02-23T11:28:33.326Z,18.23
2023-02-23T11:30:38.314Z,18.47
2023-02-23T11:32:38.803Z,18.20
2023-02-23T11:34:36.073Z,19.37
2023-02-23T11:36:33.641Z,17.30
2023-02-23T11:38:32.483Z,17.53
2023-02-23T11:40:29.926Z,18.37
2023-02-23T11:42:27.246Z,19.03
2023-02-23T11:44:24.598Z,18.53
2023-02-23T11:46:24.185Z,19.20
2023-02-23T11:48:24.972Z,18.00
2023-02-23T11:50:27.143Z,18.80
2023-02-23T11:52:26.127Z,19.03
2023-02-23T11:54:27.851Z,18.30
2023-02-23T11:56:25.852Z,20.23
2023-02-23T11:58:28.288Z,19.00
2023-02-23T12:00:31.050Z,19.03
2023-02-23T12:02:31.528Z,18.33
2023-02-23T12:04:31.768Z,19.20
2023-02-23T12:06:33.246Z,18.60
2023-02-23T12:08:40.958Z,18.23
2023-02-23T12:10:44.206Z,18.53
2023-02-23T12:12:47.435Z,18.20
2023-02-23T12:14:49.798Z,18.10
2023-02-23T12:16:50.235Z,19.97
2023-02-23T12:18:54.679Z,19.43
2023-02-23T12:20:54.997Z,19.43
2023-02-23T12:22:56.179Z,18.37
2023-02-23T12:24:56.782Z,18.60
2023-02-23T12:26:55.844Z,19.27
2023-02-23T12:28:58.885Z,19.13
2023-02-23T12:30:57.831Z,19.07
2023-02-23T12:33:00.334Z,18.47
2023-02-23T12:35:01.203Z,19.80
2023-02-23T12:37:00.955Z,20.43
2023-02-23T12:39:02.425Z,18.73
2023-02-23T12:41:04.490Z,19.13
2023-02-23T12:43:05.165Z,18.60
2023-02-23T12:45:04.510Z,19.63
2023-02-23T12:47:07.110Z,18.07
2023-02-23T12:49:12.527Z,19.20
2023-02-23T12:51:20.216Z,19.27
2023-02-23T12:53:23.094Z,19.23
2023-02-23T12:55:41.543Z,20.13
2023-02-23T12:57:44.944Z,18.60
2023-02-23T12:59:59.298Z,19.93
2023-02-23T13:01:58.910Z,19.13
2023-02-23T13:04:15.555Z,19.07
2023-02-23T13:06:16.977Z,19.60
2023-02-23T13:08:25.696Z,19.13
2023-02-23T13:10:31.996Z,18.50
2023-02-23T13:12:38.821Z,20.20
2023-02-23T13:14:43.154Z,17.93
2023-02-23T13:16:44.325Z,19.53
2023-02-23T13:18:45.501Z,19.27
2023-02-23T13:20:45.684Z,20.67
2023-02-23T13:22:49.208Z,19.93
2023-02-23T13:24:50.350Z,19.80
2023-02-23T13:26:52.040Z,19.57
2023-02-23T13:28:58.738Z,19.10
2023-02-23T13:30:53.757Z,19.43
2023-02-23T13:32:49.631Z,20.03
2023-02-23T13:34:48.269Z,19.50
2023-02-23T13:36:44.528Z,18.27
2023-02-23T13:38:48.259Z,19.83
2023-02-23T13:40:49.347Z,19.67
2023-02-23T13:42:51.096Z,20.87
2023-02-23T13:44:53.964Z,19.57
2023-02-23T13:46:54.018Z,21.07
2023-02-23T13:49:00.526Z,19.27
2023-02-23T13:51:05.892Z,19.30
2023-02-23T13:53:07.967Z,18.60
2023-02-23T13:55:06.525Z,20.10
2023-02-23T13:57:05.608Z,19.27
2023-02-23T13:59:04.157Z,19.33
2023-02-23T14:01:11.045Z,20.60
2023-02-23T14:03:09.009Z,20.03
2023-02-23T14:05:08.928Z,20.53
2023-02-23T14:07:06.828Z,20.23
2023-02-23T14:09:12.420Z,20.40
2023-02-23T14:11:10.685Z,21.07
2023-02-23T14:13:26.508Z,18.90
2023-02-23T14:15:44.132Z,21.23
2023-02-23T14:17:50.484Z,21.13
2023-02-23T14:20:06.687Z,21.03
2023-02-23T14:22:05.888Z,20.93
2023-02-23T14:24:21.179Z,15.80
2023-02-23T14:26:43.725Z,21.07
2023-02-23T14:28:40.771Z,20.87
2023-02-23T14:30:49.838Z,22.10
2023-02-23T14:32:46.957Z,20.23
2023-02-23T14:34:53.570Z,20.83
2023-02-23T14:36:49.884Z,20.37
2023-02-23T14:38:48.462Z,22.53
2023-02-23T14:40:48.971Z,21.30
2023-02-23T14:42:52.415Z,22.07
2023-02-23T14:44:51.560Z,22.13
2023-02-23T14:47:05.359Z,21.73
2023-02-23T14:49:03.552Z,22.53
2023-02-23T14:51:17.260Z,22.50
2023-02-23T14:53:21.653Z,23.13
2023-02-23T14:55:24.467Z,22.87
2023-02-23T14:57:22.685Z,23.43
2023-02-23T14:59:31.155Z,24.50
2023-02-23T15:01:38.589Z,23.63
2023-02-23T15:03:37.905Z,25.57
2023-02-23T15:05:39.509Z,25.90
2023-02-23T15:07:43.165Z,26.03
2023-02-23T15:09:44.771Z,25.83
2023-02-23T15:11:44.124Z,27.00
2023-02-23T15:13:42.829Z,26.97
2023-02-23T15:15:46.073Z,27.53
2023-02-23T15:17:45.341Z,29.30
2023-02-23T15:19:43.318Z,30.90
2023-02-23T15:21:40.470Z,30.73
2023-02-23T15:23:39.941Z,31.53
2023-02-23T15:25:40.590Z,30.73
2023-02-23T15:27:44.249Z,30.17
2023-02-23T15:29:39.158Z,28.97
2023-02-23T15:31:40.788Z,31.67
2023-02-23T15:33:40.185Z,32.57
2023-02-23T15:35:45.197Z,31.13
2023-02-23T15:40:06.428Z,31.57
2023-02-23T15:43:03.506Z,29.83
2023-02-23T15:45:04.612Z,30.73
2023-02-23T15:47:07.899Z,33.47
2023-02-23T15:49:09.119Z,31.50
2023-02-23T15:51:07.021Z,32.63
2023-02-23T15:53:08.963Z,32.90
2023-02-23T15:55:13.904Z,33.47
2023-02-23T15:57:22.674Z,34.27
2023-02-23T15:59:25.547Z,33.33
2023-02-23T16:01:27.366Z,35.53
2023-02-23T16:03:33.300Z,36.10
2023-02-23T16:05:32.769Z,35.93
2023-02-23T16:07:38.898Z,36.37
2023-02-23T16:09:34.491Z,36.77
2023-02-23T16:11:35.867Z,35.83
2023-02-23T16:13:31.046Z,36.93
2023-02-23T16:15:29.561Z,35.30
2023-02-23T16:17:35.772Z,36.80
2023-02-23T16:19:40.683Z,35.60
2023-02-23T16:21:40.226Z,37.13
2023-02-23T16:23:44.789Z,35.97
2023-02-23T16:25:40.219Z,37.60
2023-02-23T16:27:35.710Z,38.33
2023-02-23T16:29:41.452Z,38.13
2023-02-23T16:31:45.437Z,39.60
2023-02-23T16:33:48.613Z,38.70
2023-02-23T16:35:50.951Z,37.27
2023-02-23T16:37:58.077Z,37.57
2023-02-23T16:39:53.564Z,39.40
2023-02-23T16:41:50.883Z,40.70
2023-02-23T16:43:53.563Z,41.67
2023-02-23T16:45:54.720Z,41.33
2023-02-23T16:47:50.865Z,40.63
2023-02-23T16:49:45.818Z,43.63
2023-02-23T16:51:43.924Z,43.83
2023-02-23T16:53:40.666Z,42.03
2023-02-23T16:55:40.367Z,41.73
2023-02-23T16:57:42.392Z,51.10
2023-02-23T16:59:38.354Z,44.57
2023-02-23T17:01:33.793Z,44.60
2023-02-23T17:03:32.627Z,43.30
2023-02-23T17:05:32.823Z,45.47
2023-02-23T17:07:32.469Z,42.23
2023-02-23T17:09:28.257Z,44.73
2023-02-23T17:11:25.126Z,44.20
2023-02-23T17:13:22.972Z,43.50
2023-02-23T17:15:21.799Z,44.13
2023-02-23T17:17:21.729Z,45.57
2023-02-23T17:19:18.820Z,44.13
2023-02-23T17:21:22.831Z,43.33
2023-02-23T17:23:26.010Z,45.53
2023-02-23T17:25:23.180Z,45.13
2023-02-23T17:27:19.410Z,45.23
2023-02-23T17:29:14.710Z,45.33
2023-02-23T17:31:11.870Z,47.03
2023-02-23T17:33:08.000Z,46.27
2023-02-23T17:35:03.473Z,48.47
2023-02-23T17:36:58.623Z,49.73
2023-02-23T17:38:58.699Z,48.63
2023-02-23T17:40:54.810Z,49.73
2023-02-23T17:42:50.126Z,49.47
2023-02-23T17:44:45.078Z,50.27
2023-02-23T17:46:40.745Z,50.00
2023-02-23T17:48:36.628Z,50.87
2023-02-23T17:50:32.019Z,50.63
2023-02-23T17:52:27.050Z,49.37
2023-02-23T17:54:25.272Z,52.10
2023-02-23T17:56:20.510Z,52.30
2023-02-23T17:58:16.183Z,51.90
2023-02-23T18:00:15.389Z,54.73
2023-02-23T18:02:16.033Z,52.40
2023-02-23T18:04:11.091Z,52.30
2023-02-23T18:06:07.798Z,54.63
2023-02-23T18:08:02.782Z,52.70
2023-02-23T18:10:00.852Z,51.67
2023-02-23T18:11:56.433Z,55.07
2023-02-23T18:13:53.314Z,57.53
2023-02-23T18:15:52.470Z,55.53
2023-02-23T18:17:47.869Z,54.90
2023-02-23T18:19:50.129Z,56.20
2023-02-23T18:21:49.746Z,54.43
2023-02-23T18:23:45.078Z,54.90
2023-02-23T18:25:43.115Z,53.60
2023-02-23T18:27:38.054Z,54.57
2023-02-23T18:29:37.133Z,53.70
2023-02-23T18:31:32.245Z,56.20
2023-02-23T18:33:27.612Z,53.17
2023-02-23T18:35:22.631Z,53.60
2023-02-23T18:37:25.512Z,55.20
2023-02-23T18:39:20.829Z,59.27
2023-02-23T18:41:19.444Z,58.43
2023-02-23T18:43:15.282Z,57.30
2023-02-23T18:45:12.826Z,60.97
2023-02-23T18:47:07.853Z,59.80
2023-02-23T18:49:06.040Z,60.80
2023-02-23T18:51:05.723Z,59.60
2023-02-23T18:53:05.151Z,59.07
2023-02-23T18:55:05.340Z,61.27
2023-02-23T18:57:03.299Z,59.63
2023-02-23T18:59:00.781Z,58.17
2023-02-23T19:00:56.170Z,56.33
2023-02-23T19:02:51.710Z,55.70
2023-02-23T19:04:47.087Z,53.97
2023-02-23T19:06:45.969Z,55.37
2023-02-23T19:08:42.274Z,53.93
2023-02-23T19:10:37.221Z,53.87
2023-02-23T19:12:35.219Z,50.03
2023-02-23T19:14:48.357Z,53.50
2023-02-23T19:16:45.456Z,51.10
2023-02-23T19:18:40.983Z,52.63
2023-02-23T19:20:36.275Z,50.57
2023-02-23T19:22:32.470Z,52.23
2023-02-23T19:24:28.177Z,52.00
2023-02-23T19:26:24.123Z,45.97
2023-02-23T19:28:22.371Z,61.27
2023-02-23T19:30:18.184Z,49.53
2023-02-23T19:32:16.330Z,49.47
2023-02-23T19:34:15.316Z,50.97
2023-02-23T19:36:13.103Z,47.70
2023-02-23T19:38:09.969Z,48.47
2023-02-23T19:40:08.913Z,45.53
2023-02-23T19:42:09.168Z,47.63
2023-02-23T19:44:07.469Z,47.57
2023-02-23T19:46:06.833Z,47.73
2023-02-23T19:48:02.201Z,47.30
2023-02-23T19:50:06.206Z,47.23
2023-02-23T19:52:06.232Z,48.13
2023-02-23T19:54:04.958Z,45.90
2023-02-23T19:56:06.011Z,45.37
2023-02-23T19:58:07.608Z,44.60
2023-02-23T20:00:11.948Z,42.20
2023-02-23T20:02:07.363Z,43.53
2023-02-23T20:04:07.976Z,44.60
2023-02-23T20:06:07.234Z,42.83
2023-02-23T20:08:02.253Z,41.93
2023-02-23T20:09:57.901Z,41.10
2023-02-23T20:11:53.008Z,41.87
2023-02-23T20:13:50.848Z,39.63
2023-02-23T20:15:48.421Z,43.03
2023-02-23T20:17:43.735Z,40.13
2023-02-23T20:19:38.747Z,39.30
2023-02-23T20:21:34.164Z,39.17
2023-02-23T20:23:29.170Z,38.67
2023-02-23T20:25:27.159Z,39.40
2023-02-23T20:27:22.698Z,40.20
2023-02-23T20:29:19.221Z,36.80
2023-02-23T20:31:20.741Z,33.53
2023-02-23T20:33:16.846Z,24.57
2023-02-23T20:35:14.157Z,27.07
2023-02-23T20:37:09.202Z,26.70
2023-02-23T20:39:04.714Z,27.00
2023-02-23T20:41:03.077Z,23.10
2023-02-23T20:42:58.024Z,21.70
2023-02-23T20:44:53.296Z,22.27
2023-02-23T20:46:51.262Z,21.17
2023-02-23T20:48:49.019Z,21.33
2023-02-23T20:50:45.062Z,19.80
2023-02-23T20:52:41.016Z,21.07
2023-02-23T20:54:36.737Z,20.00
2023-02-23T20:56:34.493Z,20.43
2023-02-23T20:58:29.419Z,21.60
2023-02-23T21:00:32.150Z,22.57
2023-02-23T21:02:30.259Z,22.50
2023-02-23T21:04:25.458Z,22.97
2023-02-23T21:06:22.971Z,24.37
2023-02-23T21:08:18.560Z,25.63
2023-02-23T21:10:14.436Z,27.57
2023-02-23T21:12:09.969Z,27.67
2023-02-23T21:14:08.430Z,27.40
2023-02-23T21:16:03.883Z,28.43
2023-02-23T21:18:02.492Z,26.90
2023-02-23T21:19:57.680Z,27.90
2023-02-23T21:21:57.955Z,29.40
2023-02-23T21:23:53.384Z,29.03
2023-02-23T21:25:57.570Z,31.10
2023-02-23T21:31:42.128Z,29.77
2023-02-23T21:34:51.549Z,30.10
2023-02-23T21:37:28.029Z,27.97
2023-02-23T21:40:20.135Z,31.47
2023-02-23T21:43:24.164Z,28.23
2023-02-23T21:45:46.576Z,27.73
2023-02-23T21:47:44.662Z,28.37
2023-02-23T21:49:42.718Z,28.97
2023-02-23T21:51:38.198Z,29.00
2023-02-23T21:53:34.478Z,28.77
2023-02-23T21:55:33.897Z,29.17
2023-02-23T21:57:31.864Z,28.87
2023-02-23T21:59:29.426Z,28.10
2023-02-23T22:01:30.007Z,26.53
2023-02-23T22:03:27.210Z,27.13
2023-02-23T22:05:24.946Z,27.80
2023-02-23T22:07:21.815Z,27.33
2023-02-23T22:09:16.921Z,27.47
2023-02-23T22:11:17.539Z,26.23
2023-02-23T22:13:15.076Z,28.13
2023-02-23T22:15:11.817Z,26.53
2023-02-23T22:17:09.574Z,27.40
2023-02-23T22:19:05.523Z,28.33
2023-02-23T22:21:04.594Z,27.30
2023-02-23T22:23:00.500Z,28.87
2023-02-23T22:24:55.474Z,26.70
2023-02-23T22:26:54.289Z,26.53
2023-02-23T22:28:55.496Z,28.50
2023-02-23T22:30:51.440Z,29.80
2023-02-23T22:32:46.556Z,29.40
2023-02-23T22:34:42.475Z,27.03
2023-02-23T22:36:40.344Z,27.30
2023-02-23T22:38:36.217Z,27.63
2023-02-23T22:40:31.683Z,26.17
2023-02-23T22:42:29.562Z,28.00
2023-02-23T22:44:24.610Z,28.20
2023-02-23T22:46:19.977Z,28.90
2023-02-23T22:48:14.983Z,28.20
2023-02-23T22:50:17.893Z,28.47
2023-02-23T22:52:16.123Z,26.57
2023-02-23T22:54:11.641Z,27.83
2023-02-23T22:56:11.996Z,27.03
2023-02-23T22:58:09.283Z,27.37
2023-02-23T23:00:08.398Z,26.57
2023-02-23T23:02:04.582Z,25.40
2023-02-23T23:04:00.175Z,27.13
2023-02-23T23:05:56.901Z,27.03
2023-02-23T23:07:55.483Z,26.33
2023-02-23T23:09:51.691Z,25.60
2023-02-23T23:11:50.763Z,26.83
2023-02-23T23:13:48.910Z,27.07
2023-02-23T23:15:45.336Z,26.90
2023-02-23T23:17:42.834Z,26.53
2023-02-23T23:19:42.866Z,25.97
2023-02-23T23:21:41.346Z,24.53
2023-02-23T23:23:39.110Z,26.40
2023-02-23T23:25:34.055Z,25.37
2023-02-23T23:27:33.262Z,24.40
2023-02-23T23:29:29.838Z,25.57
2023-02-23T23:31:28.186Z,25.07
2023-02-23T23:33:23.177Z,23.83
2023-02-23T23:35:21.884Z,22.67
2023-02-23T23:37:17.487Z,25.10
2023-02-23T23:39:16.870Z,23.97
2023-02-23T23:41:13.875Z,23.20
2023-02-23T23:43:08.961Z,24.37
2023-02-23T23:45:06.313Z,23.40
2023-02-23T23:47:05.196Z,26.73
2023-02-23T23:49:02.611Z,23.53
2023-02-23T23:50:58.249Z,25.17
2023-02-23T23:52:54.388Z,23.13
2023-02-23T23:54:53.304Z,23.83
2023-02-23T23:56:48.514Z,22.63
2023-02-23T23:58:46.368Z,23.63
